Time;durP1;ratioP1;P1;durP2;ratioP2;P2;SDS_P1;SDS_P2;PMS_P1;PMS_P2;Temp;Humidity;BMP_temperature;BMP_pressure;BME280_temperature;BME280_humidity;BME280_pressure;Samples;Min_cycle;Max_cycle;Signal;HPM_P1;HPM_P2
2021/05/01 00:00:14;;;;;;;14.52;8.80;;;7.10;99.90;;;;;;3531688;40;20038;-63
2021/05/01 00:02:42;;;;;;;15.13;9.55;;;7.10;99.90;;;;;;3522717;40;20069;-63
2021/05/01 00:05:08;;;;;;;13.63;8.18;;;7.10;99.90;;;;;;3534421;40;20118;-64
2021/05/01 00:07:34;;;;;;;14.85;8.15;;;7.10;99.90;;;;;;3535561;40;20043;-63
2021/05/01 00:09:59;;;;;;;13.38;8.05;;;7.10;99.90;;;;;;3535105;40;20047;-63
2021/05/01 00:12:25;;;;;;;16.20;7.85;;;7.10;99.90;;;;;;3535425;40;20066;-63
2021/05/01 00:14:51;;;;;;;15.10;7.80;;;7.20;99.90;;;;;;3535314;40;20037;-64
2021/05/01 00:17:17;;;;;;;17.85;8.30;;;7.20;99.90;;;;;;3535527;40;20047;-63
2021/05/01 00:19:43;;;;;;;15.27;7.85;;;7.10;99.90;;;;;;3534126;40;20042;-64
2021/05/01 00:22:08;;;;;;;15.57;8.55;;;7.10;99.90;;;;;;3535478;40;20043;-63
2021/05/01 00:24:34;;;;;;;17.63;7.75;;;7.10;99.90;;;;;;3535549;40;20868;-64
2021/05/01 00:26:59;;;;;;;15.13;8.20;;;7.10;99.90;;;;;;3535384;40;20591;-63
2021/05/01 00:29:25;;;;;;;12.65;7.25;;;7.10;99.90;;;;;;3535304;40;20308;-64
2021/05/01 00:31:51;;;;;;;18.02;8.20;;;7.20;99.90;;;;;;3535094;40;20547;-63
2021/05/01 00:34:17;;;;;;;16.90;8.50;;;7.20;99.90;;;;;;3535521;40;20043;-64
2021/05/01 00:36:42;;;;;;;21.63;8.73;;;7.20;99.90;;;;;;3534976;40;20074;-63
2021/05/01 00:39:08;;;;;;;15.90;8.75;;;7.20;99.90;;;;;;3535254;40;20117;-63
2021/05/01 00:41:34;;;;;;;14.02;8.10;;;7.20;99.90;;;;;;3533660;40;20039;-64
2021/05/01 00:44:04;;;;;;;16.33;8.30;;;7.20;99.90;;;;;;3535673;40;20311;-63
2021/05/01 00:46:30;;;;;;;19.65;8.80;;;7.10;99.90;;;;;;3534602;40;20049;-63
2021/05/01 00:48:55;;;;;;;19.27;9.23;;;7.10;99.90;;;;;;3535176;40;20023;-63
2021/05/01 00:51:21;;;;;;;15.35;8.50;;;7.00;99.90;;;;;;3534749;40;20071;-63
2021/05/01 00:53:47;;;;;;;19.88;8.98;;;7.00;99.90;;;;;;3534826;40;20043;-63
2021/05/01 00:56:12;;;;;;;16.45;8.85;;;7.00;99.90;;;;;;3534968;40;20062;-63
2021/05/01 00:58:39;;;;;;;16.40;8.32;;;6.90;99.90;;;;;;3534755;40;20563;-63
2021/05/01 01:03:36;;;;;;;16.42;8.50;;;6.90;99.90;;;;;;3535111;40;20027;-63
2021/05/01 01:06:02;;;;;;;15.27;7.80;;;6.80;99.90;;;;;;3536074;40;20503;-63
2021/05/01 01:08:28;;;;;;;14.43;8.38;;;6.80;99.90;;;;;;3535832;40;20031;-64
2021/05/01 01:10:54;;;;;;;18.17;8.88;;;6.70;99.90;;;;;;3535215;40;20034;-63
2021/05/01 01:13:20;;;;;;;17.40;8.63;;;6.60;99.90;;;;;;3535448;40;20031;-63
2021/05/01 01:15:46;;;;;;;16.90;8.93;;;6.50;99.90;;;;;;3533958;40;20465;-63
2021/05/01 01:18:13;;;;;;;20.58;9.70;;;6.50;99.90;;;;;;3523982;40;20328;-63
2021/05/01 01:20:39;;;;;;;19.10;9.05;;;6.50;99.90;;;;;;3532870;40;20400;-63
2021/05/01 01:23:05;;;;;;;19.38;9.32;;;6.40;99.90;;;;;;3532852;40;20030;-64
2021/05/01 01:25:30;;;;;;;18.55;9.68;;;6.40;99.90;;;;;;3533033;40;20030;-63
2021/05/01 01:27:59;;;;;;;14.60;8.10;;;6.40;99.90;;;;;;3533040;40;20035;-63
2021/05/01 01:30:29;;;;;;;17.33;8.70;;;6.40;99.90;;;;;;3532036;40;20494;-63
2021/05/01 01:32:56;;;;;;;16.50;9.02;;;6.40;99.90;;;;;;3532693;40;20050;-63
2021/05/01 01:35:22;;;;;;;18.27;9.90;;;6.50;99.90;;;;;;3532799;40;20355;-63
2021/05/01 01:37:49;;;;;;;14.05;8.70;;;6.50;99.90;;;;;;3532866;40;20035;-63
2021/05/01 01:40:16;;;;;;;13.98;8.57;;;6.60;99.90;;;;;;3532203;40;20050;-63
2021/05/01 01:42:42;;;;;;;15.32;8.70;;;6.60;99.90;;;;;;3532283;40;20523;-63
2021/05/01 01:45:15;;;;;;;15.70;8.70;;;6.70;99.90;;;;;;3531582;40;20089;-63
2021/05/01 01:47:41;;;;;;;17.27;9.02;;;6.70;99.90;;;;;;3532844;40;20051;-63
2021/05/01 01:50:10;;;;;;;15.05;8.55;;;6.70;99.90;;;;;;3532389;40;20159;-65
2021/05/01 01:52:37;;;;;;;16.20;9.07;;;6.70;99.90;;;;;;3532544;40;20429;-63
2021/05/01 01:55:08;;;;;;;15.05;9.10;;;6.70;99.90;;;;;;3532581;40;20043;-64
2021/05/01 01:57:34;;;;;;;12.98;8.60;;;6.80;99.90;;;;;;3531178;40;20034;-63
2021/05/01 02:00:00;;;;;;;15.80;9.07;;;6.80;99.90;;;;;;3533390;40;20046;-63
2021/05/01 02:02:26;;;;;;;16.02;8.73;;;6.90;99.90;;;;;;3532730;40;20137;-70
2021/05/01 02:04:52;;;;;;;16.02;8.60;;;6.90;99.90;;;;;;3532496;40;20401;-63
2021/05/01 02:07:18;;;;;;;15.23;8.55;;;6.90;99.90;;;;;;3532400;40;20035;-63
2021/05/01 02:09:44;;;;;;;16.50;8.45;;;6.90;99.90;;;;;;3530624;40;20638;-63
2021/05/01 02:12:10;;;;;;;14.98;8.07;;;6.90;99.90;;;;;;3532195;40;20624;-63
2021/05/01 02:14:35;;;;;;;14.05;9.13;;;7.00;99.90;;;;;;3538733;40;20051;-63
2021/05/01 02:17:01;;;;;;;17.77;9.45;;;7.00;99.90;;;;;;3531957;40;20512;-63
2021/05/01 02:19:27;;;;;;;15.88;8.85;;;7.00;99.90;;;;;;3531802;40;20042;-63
2021/05/01 02:21:52;;;;;;;16.92;9.55;;;6.90;99.90;;;;;;3532689;40;20035;-63
2021/05/01 02:24:18;;;;;;;16.45;8.98;;;6.90;99.90;;;;;;3532157;40;20035;-63
2021/05/01 02:26:44;;;;;;;17.30;8.73;;;6.90;99.90;;;;;;3531576;40;20449;-64
2021/05/01 02:29:10;;;;;;;15.02;8.57;;;6.90;99.90;;;;;;3531482;40;20030;-63
2021/05/01 02:31:35;;;;;;;16.65;9.02;;;6.80;99.90;;;;;;3531786;40;20713;-63
2021/05/01 02:34:01;;;;;;;15.77;8.95;;;6.90;99.90;;;;;;3531799;40;20432;-63
2021/05/01 02:36:27;;;;;;;18.55;9.45;;;6.80;99.90;;;;;;3531467;40;20305;-63
2021/05/01 02:38:53;;;;;;;20.08;9.15;;;6.90;99.90;;;;;;3531807;40;20023;-63
2021/05/01 02:41:22;;;;;;;18.42;9.88;;;6.90;99.90;;;;;;3531287;40;20049;-63
2021/05/01 02:43:47;;;;;;;15.85;9.00;;;6.90;99.90;;;;;;3531175;40;20070;-63
2021/05/01 02:46:13;;;;;;;15.95;9.18;;;6.90;99.90;;;;;;3532070;40;20297;-64
2021/05/01 02:48:38;;;;;;;18.30;10.00;;;6.90;99.90;;;;;;3532353;40;20057;-63
2021/05/01 02:51:04;;;;;;;18.35;9.00;;;6.90;99.90;;;;;;3531851;40;20120;-63
2021/05/01 02:53:30;;;;;;;16.48;9.85;;;6.90;99.90;;;;;;3532282;40;20157;-63
2021/05/01 02:55:56;;;;;;;17.05;9.35;;;6.90;99.90;;;;;;3532038;40;20026;-63
2021/05/01 02:58:21;;;;;;;21.27;9.80;;;6.90;99.90;;;;;;3531476;40;20030;-63
2021/05/01 03:00:47;;;;;;;15.43;9.15;;;6.90;99.90;;;;;;3532776;40;20035;-63
2021/05/01 03:03:13;;;;;;;19.27;9.75;;;6.90;99.90;;;;;;3531795;40;20307;-63
2021/05/01 03:05:38;;;;;;;19.17;9.18;;;6.90;99.90;;;;;;3532610;40;20125;-63
2021/05/01 03:08:04;;;;;;;16.50;9.88;;;6.90;99.90;;;;;;3532154;40;20027;-63
2021/05/01 03:10:30;;;;;;;20.08;9.52;;;6.90;99.90;;;;;;3533687;40;20302;-63
2021/05/01 03:12:56;;;;;;;18.40;10.38;;;6.90;99.90;;;;;;3532875;40;20038;-71
2021/05/01 03:15:23;;;;;;;22.15;10.18;;;6.90;99.90;;;;;;3532341;40;20038;-71
2021/05/01 03:17:49;;;;;;;17.20;8.90;;;6.90;99.90;;;;;;3531882;40;20038;-71
2021/05/01 03:20:16;;;;;;;17.85;9.20;;;6.90;99.90;;;;;;3531616;40;20042;-71
2021/05/01 03:22:42;;;;;;;15.85;9.90;;;7.00;99.90;;;;;;3529672;40;20035;-71
2021/05/01 03:25:10;;;;;;;19.83;9.55;;;7.00;99.90;;;;;;3531565;40;20039;-72
2021/05/01 03:27:36;;;;;;;15.77;9.65;;;7.00;99.90;;;;;;3531247;40;20043;-72
2021/05/01 03:30:05;;;;;;;21.35;11.23;;;7.00;99.90;;;;;;3529487;40;20058;-72
2021/05/01 03:32:31;;;;;;;20.60;11.95;;;7.00;99.90;;;;;;3530324;40;20051;-72
2021/05/01 03:34:56;;;;;;;21.23;11.15;;;7.10;99.90;;;;;;3530762;40;20031;-72
2021/05/01 03:37:22;;;;;;;20.77;11.52;;;7.10;99.90;;;;;;3537830;40;20054;-72
2021/05/01 03:39:48;;;;;;;23.30;11.18;;;7.10;99.90;;;;;;3531081;40;20046;-72
2021/05/01 03:42:15;;;;;;;21.67;11.02;;;7.10;99.90;;;;;;3532396;40;20587;-71
2021/05/01 03:44:40;;;;;;;17.02;9.73;;;7.20;99.90;;;;;;3532386;40;20093;-71
2021/05/01 03:47:06;;;;;;;19.13;11.00;;;7.20;99.90;;;;;;3531972;40;20083;-71
2021/05/01 03:49:32;;;;;;;18.77;10.15;;;7.20;99.90;;;;;;3529766;40;20039;-71
2021/05/01 03:51:57;;;;;;;17.52;10.75;;;7.20;99.90;;;;;;3530598;40;20035;-71
2021/05/01 03:54:23;;;;;;;19.67;10.65;;;7.10;99.90;;;;;;3532233;40;20121;-71
2021/05/01 03:56:49;;;;;;;23.83;11.63;;;7.10;99.90;;;;;;3532156;40;20031;-71
2021/05/01 03:59:15;;;;;;;21.55;11.25;;;7.20;99.90;;;;;;3531940;40;20038;-71
2021/05/01 04:01:41;;;;;;;20.75;11.32;;;7.20;99.90;;;;;;3531836;40;20039;-71
2021/05/01 04:04:09;;;;;;;21.08;11.48;;;7.30;99.90;;;;;;3531556;40;20676;-71
2021/05/01 04:06:35;;;;;;;19.90;11.55;;;7.30;99.90;;;;;;3530746;40;20675;-71
2021/05/01 04:09:01;;;;;;;19.60;11.38;;;7.30;99.90;;;;;;3532047;40;20031;-71
2021/05/01 04:11:27;;;;;;;24.65;12.25;;;7.30;99.90;;;;;;3531845;40;20068;-71
2021/05/01 04:13:53;;;;;;;22.23;11.70;;;7.30;99.90;;;;;;3532087;40;20155;-71
2021/05/01 04:16:19;;;;;;;22.65;11.90;;;7.40;99.90;;;;;;3531998;40;20031;-72
2021/05/01 04:18:46;;;;;;;20.88;11.15;;;7.40;99.90;;;;;;3531863;40;20039;-71
2021/05/01 04:21:12;;;;;;;19.27;11.60;;;7.40;99.90;;;;;;3532138;40;20125;-75
2021/05/01 04:23:38;;;;;;;25.00;12.68;;;7.40;99.90;;;;;;3532891;40;20051;-72
2021/05/01 04:26:03;;;;;;;19.73;12.25;;;7.40;99.90;;;;;;3531565;40;20046;-71
2021/05/01 04:28:30;;;;;;;26.25;12.15;;;7.40;99.90;;;;;;3531147;40;20055;-71
2021/05/01 04:30:56;;;;;;;24.85;12.35;;;7.50;99.90;;;;;;3529683;40;20058;-71
2021/05/01 04:33:22;;;;;;;19.67;11.20;;;7.50;99.90;;;;;;3530216;40;20042;-71
2021/05/01 04:35:49;;;;;;;24.55;12.13;;;7.50;99.90;;;;;;3531626;40;20072;-71
2021/05/01 04:38:16;;;;;;;23.75;12.20;;;7.50;99.90;;;;;;3531302;40;20503;-71
2021/05/01 04:40:42;;;;;;;19.48;12.07;;;7.50;99.90;;;;;;3531465;40;20065;-71
2021/05/01 04:43:10;;;;;;;21.20;12.23;;;7.50;99.90;;;;;;3531733;40;20050;-71
2021/05/01 04:45:36;;;;;;;24.15;12.02;;;7.50;99.90;;;;;;3531700;40;20023;-71
2021/05/01 04:48:03;;;;;;;20.92;11.52;;;7.50;99.90;;;;;;3531730;40;20031;-71
2021/05/01 04:50:29;;;;;;;27.20;13.93;;;7.50;99.90;;;;;;3531602;40;20130;-71
2021/05/01 04:52:55;;;;;;;25.92;14.07;;;7.60;99.90;;;;;;3540528;40;20038;-71
2021/05/01 04:55:20;;;;;;;26.20;14.65;;;7.60;99.90;;;;;;3533317;40;20496;-71
2021/05/01 04:57:48;;;;;;;26.77;14.32;;;7.60;99.90;;;;;;3531400;40;20038;-71
2021/05/01 05:00:16;;;;;;;29.13;14.35;;;7.60;99.90;;;;;;3532827;40;20035;-71
2021/05/01 05:02:42;;;;;;;21.27;12.25;;;7.60;99.90;;;;;;3532396;40;20035;-71
2021/05/01 05:05:09;;;;;;;19.58;11.52;;;7.60;99.90;;;;;;3532938;40;20045;-71
2021/05/01 05:07:34;;;;;;;27.58;11.32;;;7.70;99.90;;;;;;3532497;40;20075;-71
2021/05/01 05:10:00;;;;;;;22.52;11.43;;;7.70;99.90;;;;;;3531003;40;20042;-71
2021/05/01 05:12:26;;;;;;;18.05;10.68;;;7.80;99.90;;;;;;3532587;40;20027;-71
2021/05/01 05:14:52;;;;;;;20.80;12.63;;;7.80;99.90;;;;;;3532898;40;20046;-71
2021/05/01 05:17:18;;;;;;;25.42;12.65;;;7.80;99.90;;;;;;3526052;40;20786;-71
2021/05/01 05:19:44;;;;;;;23.77;12.85;;;7.90;99.90;;;;;;3532912;40;20050;-74
2021/05/01 05:22:10;;;;;;;28.58;14.18;;;7.80;99.90;;;;;;3532910;40;20618;-72
2021/05/01 05:24:37;;;;;;;28.02;14.48;;;7.90;99.90;;;;;;3530638;40;20117;-71
2021/05/01 05:27:03;;;;;;;28.20;14.50;;;7.80;99.90;;;;;;3531936;40;20062;-71
2021/05/01 05:29:29;;;;;;;28.35;13.77;;;7.90;99.90;;;;;;3532855;40;20043;-73
2021/05/01 05:31:56;;;;;;;27.65;14.57;;;7.90;99.90;;;;;;3532907;40;20093;-73
2021/05/01 05:34:22;;;;;;;27.70;15.30;;;8.00;99.90;;;;;;3531593;40;20035;-73
2021/05/01 05:36:47;;;;;;;35.97;15.05;;;8.10;99.90;;;;;;3531603;40;20042;-73
2021/05/01 05:39:14;;;;;;;25.95;14.10;;;8.00;99.90;;;;;;3532091;40;20395;-73
2021/05/01 05:41:40;;;;;;;27.85;14.48;;;8.00;99.90;;;;;;3532612;40;20067;-71
2021/05/01 05:44:05;;;;;;;30.65;14.95;;;8.20;99.90;;;;;;3532417;40;20047;-71
2021/05/01 05:46:31;;;;;;;28.60;14.80;;;8.20;99.90;;;;;;3531965;40;20425;-71
2021/05/01 05:48:57;;;;;;;30.05;14.25;;;8.20;99.90;;;;;;3531407;40;20667;-71
2021/05/01 05:51:23;;;;;;;27.08;14.27;;;8.10;99.90;;;;;;3531340;40;20038;-71
2021/05/01 05:53:49;;;;;;;28.90;15.20;;;8.10;99.90;;;;;;3532265;40;20026;-71
2021/05/01 05:56:15;;;;;;;31.05;15.25;;;8.10;99.90;;;;;;3532510;40;20027;-76
2021/05/01 05:58:41;;;;;;;30.13;15.38;;;8.20;99.90;;;;;;3533008;40;20118;-77
2021/05/01 06:01:07;;;;;;;27.48;14.20;;;8.20;99.90;;;;;;3532208;40;20056;-77
2021/05/01 06:03:35;;;;;;;27.77;14.27;;;8.20;99.90;;;;;;3532798;40;20038;-76
2021/05/01 06:06:26;;;;;;;30.23;14.57;;;8.20;99.90;;;;;;3532090;40;20039;-76
2021/05/01 06:08:53;;;;;;;33.15;14.80;;;8.10;99.90;;;;;;3532120;40;20482;-77
2021/05/01 06:11:19;;;;;;;29.77;14.13;;;8.20;99.90;;;;;;3532375;40;20050;-76
2021/05/01 06:13:46;;;;;;;28.25;14.90;;;8.20;99.90;;;;;;3532605;40;20348;-77
2021/05/01 06:16:13;;;;;;;27.80;15.23;;;8.20;99.90;;;;;;3532432;40;20426;-77
2021/05/01 06:18:41;;;;;;;27.35;15.07;;;8.20;99.90;;;;;;3531518;40;20038;-72
2021/05/01 06:21:13;;;;;;;31.48;14.85;;;8.30;99.90;;;;;;3532208;40;20629;-72
2021/05/01 06:23:42;;;;;;;30.02;14.05;;;8.40;99.90;;;;;;3531734;40;20094;-72
2021/05/01 06:26:08;;;;;;;27.08;14.43;;;8.30;99.90;;;;;;3531512;40;20133;-71
2021/05/01 06:28:35;;;;;;;27.92;14.18;;;8.40;99.90;;;;;;3538364;40;20032;-72
2021/05/01 06:31:03;;;;;;;22.95;13.60;;;8.40;99.90;;;;;;3531150;40;20133;-71
2021/05/01 06:33:29;;;;;;;26.08;13.80;;;8.20;99.90;;;;;;3531235;40;20031;-62
2021/05/01 06:35:55;;;;;;;26.17;14.65;;;8.20;99.90;;;;;;3531692;40;20031;-64
2021/05/01 06:38:20;;;;;;;29.05;14.93;;;8.20;99.90;;;;;;3531538;40;20054;-63
2021/05/01 06:40:50;;;;;;;32.97;15.13;;;8.30;99.90;;;;;;3531566;40;20035;-63
2021/05/01 06:43:58;;;;;;;29.27;14.45;;;8.20;99.90;;;;;;3530818;40;20129;-63
2021/05/01 06:46:28;;;;;;;30.63;14.77;;;8.20;99.90;;;;;;3530931;40;20038;-63
2021/05/01 06:48:54;;;;;;;29.55;13.98;;;8.20;99.90;;;;;;3530800;40;20069;-63
2021/05/01 06:51:20;;;;;;;30.35;14.02;;;8.30;99.90;;;;;;3531342;40;20877;-67
2021/05/01 06:53:47;;;;;;;35.53;15.00;;;8.40;99.90;;;;;;3533546;40;20043;-69
2021/05/01 06:56:14;;;;;;;29.98;15.32;;;8.50;99.90;;;;;;3532324;40;20655;-63
2021/05/01 06:58:41;;;;;;;29.48;14.95;;;8.70;99.90;;;;;;3532242;40;20083;-63
2021/05/01 07:01:11;;;;;;;32.05;14.98;;;8.70;99.90;;;;;;3530488;40;20031;-63
2021/05/01 07:03:45;;;;;;;32.63;14.90;;;8.70;99.90;;;;;;3532126;40;20413;-62
2021/05/01 07:06:15;;;;;;;27.38;15.60;;;8.90;99.90;;;;;;3531838;40;20045;-62
2021/05/01 07:08:41;;;;;;;29.52;14.55;;;9.00;99.90;;;;;;3531351;40;20053;-62
2021/05/01 07:11:08;;;;;;;32.95;19.40;;;9.10;99.90;;;;;;3531948;40;20035;-63
2021/05/01 07:13:35;;;;;;;25.52;13.88;;;9.30;99.90;;;;;;3531307;40;20031;-64
2021/05/01 07:16:03;;;;;;;26.13;14.57;;;9.60;99.90;;;;;;3531318;40;20451;-63
2021/05/01 07:18:33;;;;;;;21.15;13.32;;;9.70;99.90;;;;;;3531821;40;20045;-65
2021/05/01 07:21:02;;;;;;;26.38;15.10;;;9.70;99.90;;;;;;3530862;40;20059;-62
2021/05/01 07:23:27;;;;;;;25.73;15.63;;;9.60;99.90;;;;;;3532344;40;20058;-63
2021/05/01 07:25:53;;;;;;;29.60;16.27;;;9.80;99.90;;;;;;3531834;40;20049;-62
2021/05/01 07:28:26;;;;;;;26.15;15.32;;;10.10;99.90;;;;;;3532261;40;20073;-63
2021/05/01 07:30:56;;;;;;;28.63;15.88;;;10.20;99.90;;;;;;3529980;40;20057;-62
2021/05/01 07:33:37;;;;;;;25.90;14.68;;;10.40;99.90;;;;;;3531189;40;20035;-63
2021/05/01 07:36:11;;;;;;;25.60;14.95;;;10.50;99.90;;;;;;3529188;40;20042;-63
2021/05/01 07:38:38;;;;;;;27.33;14.68;;;10.50;99.90;;;;;;3531121;40;20778;-63
2021/05/01 07:41:04;;;;;;;26.85;16.13;;;10.60;99.90;;;;;;3529906;40;20066;-63
2021/05/01 07:43:30;;;;;;;27.77;14.48;;;10.70;99.90;;;;;;3529718;40;20417;-63
2021/05/01 07:46:05;;;;;;;27.17;14.70;;;10.70;99.90;;;;;;3529248;40;20102;-63
2021/05/01 07:48:32;;;;;;;23.45;13.57;;;10.80;99.90;;;;;;3531006;40;20140;-63
2021/05/01 07:50:58;;;;;;;28.38;13.70;;;10.80;99.90;;;;;;3529854;40;20605;-63
2021/05/01 07:53:25;;;;;;;25.88;14.63;;;11.00;99.90;;;;;;3530422;40;20027;-63
2021/05/01 07:55:51;;;;;;;26.02;13.93;;;11.00;99.90;;;;;;3529886;40;20059;-63
2021/05/01 07:58:16;;;;;;;26.20;13.70;;;11.40;99.90;;;;;;3530936;40;20034;-63
2021/05/01 08:00:43;;;;;;;21.95;12.52;;;11.70;99.90;;;;;;3531179;40;20142;-63
2021/05/01 08:03:09;;;;;;;22.98;12.63;;;11.60;99.90;;;;;;3531999;40;20034;-63
2021/05/01 08:05:35;;;;;;;19.25;11.68;;;11.60;99.90;;;;;;3531894;40;20042;-63
2021/05/01 08:08:01;;;;;;;23.95;13.18;;;11.90;99.90;;;;;;3532304;40;20417;-62
2021/05/01 08:10:27;;;;;;;22.85;11.98;;;11.70;99.90;;;;;;3532445;40;20091;-63
2021/05/01 08:12:52;;;;;;;19.63;11.77;;;12.30;99.90;;;;;;3532739;40;20057;-64
2021/05/01 08:15:19;;;;;;;17.85;11.50;;;12.50;99.90;;;;;;3532781;40;20031;-63
2021/05/01 08:17:44;;;;;;;19.63;12.20;;;12.70;99.90;;;;;;3532831;40;20101;-63
2021/05/01 08:20:12;;;;;;;17.85;10.70;;;12.70;99.90;;;;;;3530791;40;20455;-63
2021/05/01 08:22:38;;;;;;;18.90;11.63;;;12.40;99.90;;;;;;3530796;40;20400;-63
2021/05/01 08:25:08;;;;;;;20.77;12.20;;;12.40;99.90;;;;;;3533409;40;20035;-63
2021/05/01 08:27:34;;;;;;;22.55;13.43;;;12.50;99.90;;;;;;3533800;40;20035;-63
2021/05/01 08:30:01;;;;;;;20.65;12.38;;;12.30;99.90;;;;;;3532453;40;20055;-63
2021/05/01 08:32:26;;;;;;;26.55;12.95;;;12.20;99.90;;;;;;3533819;40;20043;-63
2021/05/01 08:34:52;;;;;;;23.60;12.30;;;12.00;99.90;;;;;;3532969;40;20655;-63
2021/05/01 08:37:18;;;;;;;19.33;11.85;;;11.80;99.90;;;;;;3538507;40;20083;-64
2021/05/01 08:39:43;;;;;;;25.98;12.98;;;11.70;99.90;;;;;;3531120;40;20149;-63
2021/05/01 08:42:09;;;;;;;23.77;13.27;;;11.50;99.90;;;;;;3531807;40;20117;-63
2021/05/01 08:44:35;;;;;;;23.25;12.88;;;11.50;99.90;;;;;;3530780;40;20385;-63
2021/05/01 08:47:01;;;;;;;28.95;15.65;;;11.50;99.90;;;;;;3530239;40;20043;-64
2021/05/01 08:49:27;;;;;;;23.80;13.52;;;11.50;99.90;;;;;;3532961;40;20039;-64
2021/05/01 08:51:53;;;;;;;21.90;13.38;;;11.40;99.90;;;;;;3532418;40;20401;-64
2021/05/01 08:54:18;;;;;;;24.85;12.77;;;11.70;99.90;;;;;;3532924;40;20054;-63
2021/05/01 08:56:45;;;;;;;23.15;12.68;;;12.40;99.90;;;;;;3530763;40;20054;-64
2021/05/01 08:59:11;;;;;;;17.75;12.05;;;13.10;99.90;;;;;;3531443;40;20047;-63
2021/05/01 09:01:38;;;;;;;21.42;12.55;;;13.60;99.90;;;;;;3526429;40;20050;-64
2021/05/01 09:04:05;;;;;;;21.98;11.68;;;13.80;99.90;;;;;;3530056;40;20047;-63
2021/05/01 09:06:32;;;;;;;23.20;13.43;;;13.60;99.90;;;;;;3536506;40;20035;-63
2021/05/01 09:09:00;;;;;;;17.40;11.52;;;14.20;99.90;;;;;;3531077;40;20088;-64
2021/05/01 09:11:38;;;;;;;18.10;11.27;;;14.60;99.20;;;;;;3530563;40;20038;-66
2021/05/01 09:14:26;;;;;;;17.13;11.00;;;14.50;99.70;;;;;;3530288;40;20055;-64
2021/05/01 09:17:06;;;;;;;17.88;9.93;;;14.60;98.50;;;;;;3531335;40;20842;-64
2021/05/01 09:19:36;;;;;;;15.90;9.52;;;14.20;98.80;;;;;;3529814;40;20039;-64
2021/05/01 09:22:04;;;;;;;20.75;10.68;;;14.40;98.20;;;;;;3531559;40;20027;-64
2021/05/01 09:24:31;;;;;;;17.13;10.35;;;14.30;97.10;;;;;;3529524;40;20035;-62
2021/05/01 09:26:57;;;;;;;14.07;9.35;;;14.60;98.20;;;;;;3529400;40;20043;-63
2021/05/01 09:29:35;;;;;;;16.75;9.75;;;15.20;96.60;;;;;;3528483;40;20276;-72
2021/05/01 09:32:02;;;;;;;13.40;9.10;;;15.20;95.80;;;;;;3535370;40;20051;-71
2021/05/01 09:34:39;;;;;;;15.88;8.70;;;15.60;95.40;;;;;;3527779;40;20443;-64
2021/05/01 09:37:06;;;;;;;16.48;9.52;;;15.80;96.40;;;;;;3527690;40;20047;-65
2021/05/01 09:39:32;;;;;;;13.07;8.95;;;15.90;93.20;;;;;;3529053;40;20721;-64
2021/05/01 09:41:59;;;;;;;13.70;8.43;;;15.70;93.60;;;;;;3528292;40;20039;-64
2021/05/01 09:44:25;;;;;;;15.13;9.00;;;15.70;93.50;;;;;;3534330;40;20046;-64
2021/05/01 09:46:53;;;;;;;12.60;8.57;;;15.30;93.30;;;;;;3528548;40;20050;-64
2021/05/01 09:49:28;;;;;;;22.40;12.13;;;15.10;93.80;;;;;;3526837;40;20074;-63
2021/05/01 09:51:54;;;;;;;14.18;7.68;;;15.10;94.40;;;;;;3534566;40;20169;-64
2021/05/01 09:54:34;;;;;;;13.55;8.32;;;15.80;92.50;;;;;;3538748;40;20810;-64
2021/05/01 09:57:21;;;;;;;12.90;8.38;;;16.20;90.70;;;;;;3526921;40;20054;-64
2021/05/01 09:59:52;;;;;;;12.20;7.93;;;16.40;90.10;;;;;;3527945;40;20105;-64
2021/05/01 10:02:36;;;;;;;16.75;8.93;;;16.40;88.10;;;;;;3527649;40;20039;-64
2021/05/01 10:05:13;;;;;;;11.40;7.35;;;16.50;85.50;;;;;;3526691;40;20034;-64
2021/05/01 10:07:47;;;;;;;13.82;8.85;;;16.40;86.20;;;;;;3526547;40;20757;-64
2021/05/01 10:10:13;;;;;;;14.63;8.82;;;16.60;84.30;;;;;;3527891;40;20040;-65
2021/05/01 10:12:41;;;;;;;12.85;7.90;;;16.60;82.00;;;;;;3526258;40;20047;-64
2021/05/01 10:15:13;;;;;;;12.38;7.53;;;16.00;83.40;;;;;;3528001;40;20031;-64
2021/05/01 10:17:39;;;;;;;17.98;8.48;;;15.90;84.00;;;;;;3526292;40;20039;-63
2021/05/01 10:20:07;;;;;;;12.02;8.30;;;15.50;88.30;;;;;;3524282;40;20102;-63
2021/05/01 10:22:40;;;;;;;12.68;7.72;;;15.30;88.80;;;;;;3527951;40;20047;-63
2021/05/01 10:25:09;;;;;;;10.80;7.43;;;15.00;90.30;;;;;;3525724;40;20116;-63
2021/05/01 10:27:59;;;;;;;13.05;8.60;;;14.60;91.90;;;;;;3528038;40;20039;-64
2021/05/01 10:30:37;;;;;;;13.55;8.90;;;14.50;93.00;;;;;;3527369;40;20057;-63
2021/05/01 10:33:11;;;;;;;17.90;9.15;;;14.50;93.30;;;;;;3528155;40;20136;-64
2021/05/01 10:36:07;;;;;;;11.50;8.15;;;14.60;93.80;;;;;;3527935;40;20398;-64
2021/05/01 10:38:34;;;;;;;11.60;7.80;;;15.00;94.20;;;;;;3527330;40;20558;-63
2021/05/01 10:41:02;;;;;;;12.20;8.60;;;16.10;91.90;;;;;;3526891;40;20125;-63
2021/05/01 10:43:33;;;;;;;13.23;8.25;;;17.00;85.90;;;;;;3524638;40;20047;-63
2021/05/01 10:46:07;;;;;;;12.13;7.25;;;17.30;83.80;;;;;;3527360;40;20129;-63
2021/05/01 10:48:45;;;;;;;11.90;7.85;;;17.60;80.90;;;;;;3526241;40;20038;-64
2021/05/01 10:51:11;;;;;;;9.52;6.95;;;16.10;83.80;;;;;;3526607;40;20093;-63
2021/05/01 10:53:38;;;;;;;13.75;8.20;;;15.80;85.40;;;;;;3527159;40;20506;-63
2021/05/01 10:56:06;;;;;;;17.35;8.30;;;15.90;82.60;;;;;;3528000;40;20031;-63
2021/05/01 10:58:46;;;;;;;12.48;8.55;;;15.80;85.90;;;;;;3526407;40;20038;-63
2021/05/01 11:01:33;;;;;;;13.65;8.10;;;15.10;90.50;;;;;;3526768;40;20045;-63
2021/05/01 11:04:02;;;;;;;14.93;8.95;;;14.90;91.80;;;;;;3526726;40;20047;-63
2021/05/01 11:06:29;;;;;;;16.80;8.98;;;14.20;92.90;;;;;;3526952;40;20050;-63
2021/05/01 11:09:07;;;;;;;13.63;9.15;;;14.00;95.20;;;;;;3527136;40;20098;-63
2021/05/01 11:11:37;;;;;;;14.00;9.60;;;13.90;96.60;;;;;;3526183;40;20035;-63
2021/05/01 11:14:12;;;;;;;14.10;8.65;;;13.80;96.30;;;;;;3525791;40;20085;-63
2021/05/01 11:16:44;;;;;;;15.97;10.20;;;13.60;97.50;;;;;;3526835;40;20622;-63
2021/05/01 11:19:13;;;;;;;14.73;8.93;;;13.40;97.20;;;;;;3526328;40;20041;-63
2021/05/01 11:21:43;;;;;;;14.18;9.75;;;13.20;97.60;;;;;;3525408;40;20920;-63
2021/05/01 11:24:11;;;;;;;16.88;9.50;;;13.10;98.10;;;;;;3534695;40;20398;-63
2021/05/01 11:26:43;;;;;;;13.18;8.35;;;13.00;99.50;;;;;;3527774;40;20034;-63
2021/05/01 11:29:09;;;;;;;15.82;9.73;;;13.10;98.60;;;;;;3529440;40;20046;-63
2021/05/01 11:31:36;;;;;;;16.20;9.48;;;13.00;99.00;;;;;;3529614;40;20090;-63
2021/05/01 11:34:05;;;;;;;14.60;8.98;;;13.20;98.40;;;;;;3528434;40;20026;-63
2021/05/01 11:36:38;;;;;;;15.55;9.23;;;13.30;98.80;;;;;;3529020;40;20035;-63
2021/05/01 11:39:04;;;;;;;15.77;10.00;;;13.30;99.40;;;;;;3528969;40;20046;-63
2021/05/01 11:41:29;;;;;;;11.70;8.00;;;13.70;97.70;;;;;;3528521;40;20046;-64
2021/05/01 11:43:55;;;;;;;17.15;9.52;;;14.10;98.10;;;;;;3534495;40;20115;-63
2021/05/01 11:46:55;;;;;;;11.38;7.88;;;14.20;97.50;;;;;;3528210;40;20043;-63
2021/05/01 11:49:23;;;;;;;13.43;9.02;;;14.30;96.40;;;;;;3526651;40;20058;-64
2021/05/01 11:52:04;;;;;;;13.48;7.68;;;14.50;96.70;;;;;;3525870;40;20423;-63
2021/05/01 11:55:04;;;;;;;14.25;8.60;;;15.00;94.30;;;;;;3525588;40;20046;-63
2021/05/01 11:57:43;;;;;;;14.35;8.25;;;15.50;92.70;;;;;;3523642;40;20039;-63
2021/05/01 12:00:10;;;;;;;11.07;7.90;;;16.70;88.30;;;;;;3526605;40;20610;-63
2021/05/01 12:02:41;;;;;;;18.33;8.88;;;17.50;87.60;;;;;;3526762;40;20062;-63
2021/05/01 12:05:18;;;;;;;12.02;7.88;;;18.40;74.70;;;;;;3526847;40;20071;-64
2021/05/01 12:07:53;;;;;;;11.80;7.10;;;18.90;72.00;;;;;;3527246;40;20105;-64
2021/05/01 12:10:21;;;;;;;12.82;7.88;;;19.10;70.20;;;;;;3526919;40;20713;-64
2021/05/01 12:13:03;;;;;;;10.65;7.35;;;19.00;69.00;;;;;;3527496;40;20078;-63
2021/05/01 12:15:44;;;;;;;10.68;7.80;;;18.60;68.50;;;;;;3527711;40;20038;-64
2021/05/01 12:18:10;;;;;;;17.42;9.25;;;18.50;68.20;;;;;;3527142;40;20058;-63
2021/05/01 12:20:38;;;;;;;11.18;7.10;;;19.10;68.00;;;;;;3519879;40;20102;-64
2021/05/01 12:23:14;;;;;;;9.65;6.10;;;19.00;63.10;;;;;;3529868;40;20797;-71
2021/05/01 12:25:42;;;;;;;9.68;6.82;;;18.70;64.70;;;;;;3528782;40;20050;-72
2021/05/01 12:28:10;;;;;;;17.00;8.32;;;19.20;65.30;;;;;;3528292;40;20105;-72
2021/05/01 12:30:41;;;;;;;10.45;6.95;;;19.90;62.50;;;;;;3528551;40;20815;-72
2021/05/01 12:33:42;;;;;;;13.60;7.47;;;20.00;65.90;;;;;;3529231;40;20027;-72
2021/05/01 12:36:10;;;;;;;13.00;9.00;;;20.00;61.90;;;;;;3523039;40;20785;-72
2021/05/01 12:38:41;;;;;;;11.98;8.73;;;18.80;63.70;;;;;;3529023;40;20064;-71
2021/05/01 12:41:07;;;;;;;12.98;8.48;;;17.00;68.70;;;;;;3527172;40;20051;-72
2021/05/01 12:43:32;;;;;;;9.93;6.68;;;16.60;74.80;;;;;;3528831;40;20137;-72
2021/05/01 12:46:30;;;;;;;14.50;8.07;;;17.20;74.20;;;;;;3527939;40;20043;-72